Decoded Metar for LTFG ( in ) (IATA:) | Meteo·Mobile Aviation Weather
aviador You're here:

LTFG Decoded Metar

in
Report Time2018-09-23 13:50:00
UTC Time2018-09-23 14:33:40
Flight Rules vfr VFR
Wind230° at 06 kt
W.Decomp.*RWY 26: 5.2 kt HW 3 kt LCW
W.Rank230° ranks 7
Current wind is below 230° avg. (6.3)
Visibility9999 m
Phenomena:N/A
Clouds:N/A
Expected CloudBase > 2,800 ft AGL from Temp-Dew spread
CeilingNone
Temp30°C
Dew Point23°C (66% RH)
Heat Index34.1°C
QNH1013 hPa
Raw Report
METAR LTFG 231350Z 23006KT 200V260 CAVOK 30/23 Q1013=

Extra information for LTFG:More info

Social comments